EZY33DC EGCC-EDDL
Flight info
| Callsign | EZY33DC |
|---|---|
| Flight time | N/A |
| Altitude | 35000 |
| Route | SONEX1Y SONEX L975 DESIG L603 LAMSO DCT EVELI DCT PAM P62 PISAP PISAP1A |
| Aircraft | A320/M-SDE3FGHIRWY/LB1 |
Departure
| Time | 2026-05-04 16:31 |
|---|---|
| Airport | Manchester Airport (EGCC) |
Arrival
| Time | N/A |
|---|---|
| Airport | Düsseldorf Airport (EDDL) |
| Time | Latitude | Longitude | Altitude | Speed | Heading |
|---|---|---|---|---|---|
| 2026-05-04 15:42 | 53.36893 | -2.28791 | 237 ft | 0 kts | 135° |
| 2026-05-04 15:42 | 53.36891 | -2.28789 | 237 ft | 0 kts | 135° |
| 2026-05-04 16:06 | 53.36908 | -2.28816 | 237 ft | 3 kts | 135° |
| 2026-05-04 16:07 | 53.36927 | -2.28836 | 236 ft | 4 kts | 210° |
| 2026-05-04 16:07 | 53.36953 | -2.28796 | 235 ft | 0 kts | 225° |
| 2026-05-04 16:11 | 53.36913 | -2.28868 | 233 ft | 13 kts | 225° |
| 2026-05-04 16:12 | 53.36692 | -2.28950 | 233 ft | 16 kts | 136° |
| 2026-05-04 16:12 | 53.36473 | -2.28567 | 233 ft | 14 kts | 134° |
| 2026-05-04 16:13 | 53.36367 | -2.28354 | 233 ft | 10 kts | 135° |
| 2026-05-04 16:13 | 53.36267 | -2.28186 | 233 ft | 10 kts | 135° |
| 2026-05-04 16:14 | 53.36168 | -2.28019 | 233 ft | 13 kts | 135° |
| 2026-05-04 16:14 | 53.36115 | -2.27930 | 233 ft | 0 kts | 135° |
| 2026-05-04 16:17 | 53.36106 | -2.27914 | 233 ft | 7 kts | 135° |
| 2026-05-04 16:18 | 53.35850 | -2.27732 | 233 ft | 7 kts | 181° |
| 2026-05-04 16:18 | 53.35801 | -2.27714 | 234 ft | 11 kts | 160° |
| 2026-05-04 16:19 | 53.35631 | -2.27539 | 233 ft | 6 kts | 141° |
| 2026-05-04 16:19 | 53.35612 | -2.27513 | 233 ft | 0 kts | 141° |
| 2026-05-04 16:20 | 53.35596 | -2.27492 | 234 ft | 5 kts | 141° |
| 2026-05-04 16:21 | 53.35482 | -2.27337 | 240 ft | 15 kts | 141° |
| 2026-05-04 16:22 | 53.35268 | -2.27248 | 233 ft | 20 kts | 224° |
| 2026-05-04 16:22 | 53.35110 | -2.27582 | 233 ft | 0 kts | 232° |
| 2026-05-04 16:23 | 53.35088 | -2.27623 | 233 ft | 8 kts | 230° |
| 2026-05-04 16:24 | 53.34963 | -2.27684 | 232 ft | 0 kts | 171° |
| 2026-05-04 16:29 | 53.34830 | -2.27698 | 232 ft | 15 kts | 217° |
| 2026-05-04 16:30 | 53.33834 | -2.29790 | 334 ft | 172 kts | 233° |
| 2026-05-04 16:31 | 53.32315 | -2.33057 | 1978 ft | 188 kts | 232° |
| 2026-05-04 16:31 | 53.31833 | -2.40283 | 3355 ft | 252 kts | 299° |
| 2026-05-04 16:32 | 53.36455 | -2.43906 | 4967 ft | 265 kts | 2° |
| 2026-05-04 16:33 | 53.40136 | -2.43862 | 5008 ft | 264 kts | 346° |
| 2026-05-04 16:33 | 53.43710 | -2.45514 | 6234 ft | 270 kts | 354° |
| 2026-05-04 16:34 | 53.47246 | -2.43610 | 7966 ft | 282 kts | 42° |
| 2026-05-04 16:34 | 53.48414 | -2.40947 | 8848 ft | 287 kts | 66° |
| 2026-05-04 16:35 | 53.48400 | -2.30788 | 11249 ft | 302 kts | 83° |
| 2026-05-04 16:35 | 53.50008 | -2.19458 | 12686 ft | 346 kts | 81° |
| 2026-05-04 16:36 | 53.50326 | -2.15433 | 13432 ft | 351 kts | 83° |
| 2026-05-04 16:36 | 53.50922 | -2.07259 | 14813 ft | 358 kts | 82° |
| 2026-05-04 16:37 | 53.51688 | -1.98904 | 16169 ft | 364 kts | 80° |
| 2026-05-04 16:37 | 53.52122 | -1.94691 | 16852 ft | 367 kts | 80° |
| 2026-05-04 16:37 | 53.52124 | -1.86078 | 18172 ft | 373 kts | 102° |
| 2026-05-04 16:38 | 53.50690 | -1.77643 | 19374 ft | 378 kts | 107° |
| 2026-05-04 16:39 | 53.48426 | -1.64879 | 21167 ft | 383 kts | 106° |
| 2026-05-04 16:39 | 53.46904 | -1.56314 | 22290 ft | 386 kts | 106° |
| 2026-05-04 16:40 | 53.45352 | -1.47621 | 23364 ft | 391 kts | 106° |
| 2026-05-04 16:40 | 53.43759 | -1.38765 | 24297 ft | 395 kts | 106° |
| 2026-05-04 16:41 | 53.42145 | -1.29879 | 25153 ft | 399 kts | 106° |
| 2026-05-04 16:41 | 53.39709 | -1.16453 | 26400 ft | 405 kts | 105° |
| 2026-05-04 16:42 | 53.37216 | -1.02796 | 27621 ft | 411 kts | 105° |
| 2026-05-04 16:43 | 53.35526 | -0.93625 | 28353 ft | 416 kts | 105° |
| 2026-05-04 16:43 | 53.33785 | -0.84251 | 29107 ft | 421 kts | 105° |
| 2026-05-04 16:43 | 53.32921 | -0.79625 | 29469 ft | 423 kts | 105° |
| 2026-05-04 16:44 | 53.29378 | -0.60660 | 30763 ft | 430 kts | 105° |
| 2026-05-04 16:45 | 53.27582 | -0.51064 | 31304 ft | 434 kts | 105° |
| 2026-05-04 16:46 | 53.25133 | -0.38239 | 32233 ft | 433 kts | 106° |
| 2026-05-04 16:46 | 53.23293 | -0.28605 | 32882 ft | 435 kts | 107° |
| 2026-05-04 16:47 | 53.21456 | -0.19003 | 33611 ft | 434 kts | 107° |
| 2026-05-04 16:47 | 53.19616 | -0.09406 | 34294 ft | 433 kts | 107° |
| 2026-05-04 16:48 | 53.16845 | 0.04921 | 34994 ft | 438 kts | 108° |
| 2026-05-04 16:48 | 53.15907 | 0.09740 | 35054 ft | 434 kts | 108° |
| 2026-05-04 16:49 | 53.12167 | 0.28760 | 35045 ft | 431 kts | 108° |
| 2026-05-04 16:50 | 53.08426 | 0.47708 | 35052 ft | 430 kts | 108° |
| 2026-05-04 16:51 | 53.05596 | 0.61848 | 35028 ft | 432 kts | 109° |
| 2026-05-04 16:52 | 53.01773 | 0.80824 | 35041 ft | 433 kts | 109° |
| 2026-05-04 16:53 | 52.98881 | 0.95094 | 35025 ft | 434 kts | 110° |
| 2026-05-04 16:54 | 52.96191 | 1.14647 | 35019 ft | 439 kts | 102° |
| 2026-05-04 16:55 | 52.92692 | 1.44539 | 35035 ft | 441 kts | 102° |
| 2026-05-04 16:56 | 52.89718 | 1.69487 | 35010 ft | 442 kts | 103° |
| 2026-05-04 16:57 | 52.87902 | 1.84448 | 35009 ft | 443 kts | 103° |
| 2026-05-04 16:58 | 52.85455 | 2.04477 | 35003 ft | 444 kts | 104° |
| 2026-05-04 17:00 | 52.81685 | 2.34575 | 35003 ft | 446 kts | 104° |
| 2026-05-04 17:01 | 52.78397 | 2.60295 | 35006 ft | 447 kts | 105° |
| 2026-05-04 17:02 | 52.75885 | 2.79736 | 35006 ft | 448 kts | 105° |
| 2026-05-04 17:03 | 52.74971 | 2.86688 | 35004 ft | 448 kts | 105° |
| 2026-05-04 17:03 | 52.74540 | 2.89941 | 35001 ft | 448 kts | 105° |
| 2026-05-04 17:04 | 52.72743 | 3.01776 | 35008 ft | 445 kts | 114° |
| 2026-05-04 17:05 | 52.68286 | 3.20745 | 35001 ft | 445 kts | 115° |
| 2026-05-04 17:06 | 52.64887 | 3.35062 | 35013 ft | 446 kts | 115° |
| 2026-05-04 17:07 | 52.62413 | 3.48091 | 35016 ft | 448 kts | 109° |
| 2026-05-04 17:07 | 52.60445 | 3.59557 | 34997 ft | 449 kts | 110° |
| 2026-05-04 17:08 | 52.57874 | 3.74394 | 34988 ft | 450 kts | 110° |
| 2026-05-04 17:09 | 52.56140 | 3.84287 | 34983 ft | 450 kts | 110° |
| 2026-05-04 17:09 | 52.54400 | 3.94192 | 34989 ft | 451 kts | 110° |
| 2026-05-04 17:10 | 52.50013 | 4.18938 | 34969 ft | 452 kts | 111° |
| 2026-05-04 17:11 | 52.48252 | 4.28777 | 34966 ft | 452 kts | 111° |
| 2026-05-04 17:12 | 52.45545 | 4.43751 | 34968 ft | 452 kts | 111° |
| 2026-05-04 17:13 | 52.41054 | 4.68366 | 34988 ft | 450 kts | 111° |
| 2026-05-04 17:14 | 52.37442 | 4.87970 | 35011 ft | 449 kts | 111° |
| 2026-05-04 17:15 | 52.34709 | 5.02621 | 34999 ft | 448 kts | 112° |
| 2026-05-04 17:16 | 52.29982 | 5.21441 | 34280 ft | 443 kts | 121° |
| 2026-05-04 17:16 | 52.25995 | 5.35271 | 31908 ft | 444 kts | 120° |
| 2026-05-04 17:17 | 52.24681 | 5.39822 | 31378 ft | 438 kts | 120° |
| 2026-05-04 17:17 | 52.20828 | 5.53130 | 29629 ft | 426 kts | 120° |
| 2026-05-04 17:18 | 52.19992 | 5.56008 | 29296 ft | 421 kts | 120° |
| 2026-05-04 17:18 | 52.17509 | 5.64525 | 28311 ft | 409 kts | 120° |